Time;durP1;ratioP1;P1;durP2;ratioP2;P2;SDS_P1;SDS_P2;PMS_P1;PMS_P2;Temp;Humidity;BMP_temperature;BMP_pressure;BME280_temperature;BME280_humidity;BME280_pressure;Samples;Min_cycle;Max_cycle;Signal;HPM_P1;HPM_P2
2022/07/05 00:00:41;;;;;;;5.30;5.10;;;;;;;;;;5091982;28;20043;-64
2022/07/05 00:03:07;;;;;;;5.20;5.00;;;;;;;;;;5092979;28;20096;-63
2022/07/05 00:05:32;;;;;;;5.20;5.00;;;;;;;;;;5095361;28;20024;-63
2022/07/05 00:07:57;;;;;;;5.22;5.03;;;;;;;;;;5091259;28;20539;-62
2022/07/05 00:10:23;;;;;;;5.13;4.93;;;;;;;;;;5085414;28;20020;-63
2022/07/05 00:12:48;;;;;;;5.20;5.00;;;;;;;;;;5095613;28;20016;-64
2022/07/05 00:15:13;;;;;;;5.30;5.10;;;;;;;;;;5095349;28;20027;-63
2022/07/05 00:17:39;;;;;;;5.32;5.13;;;;;;;;;;5094778;28;20040;-63
2022/07/05 00:20:04;;;;;;;5.35;5.15;;;;;;;;;;5089806;28;20070;-63
2022/07/05 00:22:30;;;;;;;5.30;5.10;;;;;;;;;;5086426;28;20024;-63
2022/07/05 00:24:55;;;;;;;5.40;5.20;;;;;;;;;;5095020;28;20103;-63
2022/07/05 00:27:20;;;;;;;5.40;5.20;;;;;;;;;;5094566;28;20032;-63
2022/07/05 00:29:46;;;;;;;5.30;5.10;;;;;;;;;;5095350;28;20024;-63
2022/07/05 00:32:11;;;;;;;5.20;5.00;;;;;;;;;;5094815;28;20403;-62
2022/07/05 00:34:36;;;;;;;5.35;5.15;;;;;;;;;;5093100;28;20369;-62
2022/07/05 00:37:02;;;;;;;5.15;4.95;;;;;;;;;;5090145;28;20035;-63
2022/07/05 00:39:27;;;;;;;5.18;4.97;;;;;;;;;;5084630;28;20115;-63
2022/07/05 00:41:53;;;;;;;5.20;5.00;;;;;;;;;;5094423;28;20471;-63
2022/07/05 00:44:27;;;;;;;5.32;5.13;;;;;;;;;;5094675;28;20028;-63
2022/07/05 00:46:53;;;;;;;5.20;5.00;;;;;;;;;;5095986;28;20048;-63
2022/07/05 00:49:18;;;;;;;5.20;5.00;;;;;;;;;;5094229;28;20399;-63
2022/07/05 00:51:43;;;;;;;5.38;5.18;;;;;;;;;;5093523;28;20016;-63
2022/07/05 00:54:09;;;;;;;5.22;5.03;;;;;;;;;;5093162;28;20055;-63
2022/07/05 00:56:34;;;;;;;5.22;5.03;;;;;;;;;;5096165;28;20111;-62
2022/07/05 00:58:59;;;;;;;5.28;5.07;;;;;;;;;;5094084;28;20016;-63
2022/07/05 01:01:25;;;;;;;5.30;5.10;;;;;;;;;;5092828;28;20082;-63
2022/07/05 01:03:51;;;;;;;5.20;5.00;;;;;;;;;;5099716;28;20439;-63
2022/07/05 01:06:17;;;;;;;5.20;5.00;;;;;;;;;;5094126;28;20054;-64
2022/07/05 01:08:44;;;;;;;5.15;4.95;;;;;;;;;;5093963;28;20023;-63
2022/07/05 01:11:09;;;;;;;5.15;4.95;;;;;;;;;;5093113;28;20417;-63
2022/07/05 01:13:35;;;;;;;5.20;5.00;;;;;;;;;;5093443;28;20099;-63
2022/07/05 01:16:01;;;;;;;5.38;5.18;;;;;;;;;;5094062;28;20028;-63
2022/07/05 01:18:27;;;;;;;5.35;5.15;;;;;;;;;;5093844;28;20391;-64
2022/07/05 01:20:52;;;;;;;5.25;5.05;;;;;;;;;;5095239;28;20023;-63
2022/07/05 01:23:18;;;;;;;5.35;5.15;;;;;;;;;;5092805;28;20387;-64
2022/07/05 01:25:44;;;;;;;5.20;5.00;;;;;;;;;;5093449;28;20458;-64
2022/07/05 01:28:10;;;;;;;5.22;5.03;;;;;;;;;;5092689;28;20085;-63
2022/07/05 01:30:36;;;;;;;5.40;5.20;;;;;;;;;;5093550;28;20472;-64
2022/07/05 01:33:01;;;;;;;5.30;5.10;;;;;;;;;;5093405;28;20013;-64
2022/07/05 01:35:26;;;;;;;5.40;5.20;;;;;;;;;;5093355;28;20052;-62
2022/07/05 01:37:52;;;;;;;5.22;5.03;;;;;;;;;;5094250;28;20020;-63
2022/07/05 01:40:20;;;;;;;5.35;5.15;;;;;;;;;;5092532;28;20100;-63
2022/07/05 01:42:46;;;;;;;5.22;5.03;;;;;;;;;;5093561;28;20020;-64
2022/07/05 01:45:11;;;;;;;5.30;5.10;;;;;;;;;;5092352;28;20507;-63
2022/07/05 01:47:40;;;;;;;5.30;5.10;;;;;;;;;;5091333;28;20074;-63
2022/07/05 01:50:06;;;;;;;5.35;5.15;;;;;;;;;;5093283;28;20360;-63
2022/07/05 01:52:32;;;;;;;5.50;5.30;;;;;;;;;;5103744;28;20077;-63
2022/07/05 01:55:01;;;;;;;5.38;5.18;;;;;;;;;;5095932;28;20016;-62
2022/07/05 01:57:27;;;;;;;5.32;5.13;;;;;;;;;;5090838;28;20081;-62
2022/07/05 01:59:52;;;;;;;5.20;5.00;;;;;;;;;;5093246;28;20016;-64
2022/07/05 02:02:17;;;;;;;5.40;5.20;;;;;;;;;;5092119;28;20467;-64
2022/07/05 02:04:43;;;;;;;5.22;5.03;;;;;;;;;;5092964;28;20418;-63
2022/07/05 02:07:08;;;;;;;5.22;5.03;;;;;;;;;;5092382;28;20020;-64
2022/07/05 02:09:34;;;;;;;5.40;5.20;;;;;;;;;;5089223;28;20016;-62
2022/07/05 02:12:00;;;;;;;5.28;5.07;;;;;;;;;;5099885;28;20091;-63
2022/07/05 02:14:25;;;;;;;5.20;5.00;;;;;;;;;;5083344;28;20476;-64
2022/07/05 02:16:51;;;;;;;5.35;5.15;;;;;;;;;;5088159;28;20104;-63
2022/07/05 02:19:16;;;;;;;5.35;5.15;;;;;;;;;;5091600;28;20471;-63
2022/07/05 02:21:41;;;;;;;5.30;5.10;;;;;;;;;;5092224;28;20023;-63
2022/07/05 02:24:07;;;;;;;5.32;5.13;;;;;;;;;;5092306;28;20099;-62
2022/07/05 02:26:32;;;;;;;5.30;5.10;;;;;;;;;;5091626;28;20053;-62
2022/07/05 02:28:58;;;;;;;5.18;4.97;;;;;;;;;;5093281;28;20102;-63
2022/07/05 02:31:23;;;;;;;5.47;5.28;;;;;;;;;;5091633;28;20016;-63
2022/07/05 02:33:48;;;;;;;5.25;5.05;;;;;;;;;;5092387;28;20123;-63
2022/07/05 02:36:14;;;;;;;5.38;5.18;;;;;;;;;;5091696;28;20373;-62
2022/07/05 02:38:40;;;;;;;5.30;5.10;;;;;;;;;;5091658;28;20538;-63
2022/07/05 02:41:06;;;;;;;5.45;5.25;;;;;;;;;;5092031;28;20111;-63
2022/07/05 02:43:32;;;;;;;5.47;5.28;;;;;;;;;;5092444;28;20115;-63
2022/07/05 02:45:57;;;;;;;5.35;5.15;;;;;;;;;;5095075;28;20476;-63
2022/07/05 02:48:22;;;;;;;5.40;5.20;;;;;;;;;;5099135;28;20433;-63
2022/07/05 02:50:48;;;;;;;5.35;5.15;;;;;;;;;;5092533;28;20024;-63
2022/07/05 02:53:13;;;;;;;5.45;5.25;;;;;;;;;;5091228;28;20024;-62
2022/07/05 02:55:38;;;;;;;5.28;5.07;;;;;;;;;;5091759;28;20012;-62
2022/07/05 02:58:03;;;;;;;5.50;5.30;;;;;;;;;;5091977;28;20022;-63
2022/07/05 03:00:29;;;;;;;5.53;5.33;;;;;;;;;;5091859;28;20107;-64
2022/07/05 03:02:54;;;;;;;5.50;5.30;;;;;;;;;;5098409;28;20251;-63
2022/07/05 03:05:19;;;;;;;5.50;5.30;;;;;;;;;;5081037;28;20067;-63
2022/07/05 03:07:45;;;;;;;5.50;5.30;;;;;;;;;;5090399;28;20540;-62
2022/07/05 03:10:10;;;;;;;5.45;5.25;;;;;;;;;;5090845;28;20027;-62
2022/07/05 03:12:35;;;;;;;5.75;5.55;;;;;;;;;;5091931;28;20016;-63
2022/07/05 03:15:01;;;;;;;5.80;5.60;;;;;;;;;;5092041;28;20028;-62
2022/07/05 03:17:26;;;;;;;5.80;5.60;;;;;;;;;;5090860;28;20043;-63
2022/07/05 03:19:51;;;;;;;5.73;5.53;;;;;;;;;;5093059;28;20094;-63
2022/07/05 03:22:16;;;;;;;5.78;5.57;;;;;;;;;;5079152;28;20269;-63
2022/07/05 03:24:42;;;;;;;6.00;5.80;;;;;;;;;;5091289;28;20027;-63
2022/07/05 03:27:07;;;;;;;5.90;5.70;;;;;;;;;;5090905;28;20280;-64
2022/07/05 03:29:32;;;;;;;5.90;5.70;;;;;;;;;;5091271;28;20050;-63
2022/07/05 03:31:58;;;;;;;5.93;5.72;;;;;;;;;;5091760;28;20073;-62
2022/07/05 03:34:23;;;;;;;6.00;5.80;;;;;;;;;;5090707;28;20062;-62
2022/07/05 03:36:48;;;;;;;6.00;5.80;;;;;;;;;;5098802;28;20014;-63
2022/07/05 03:39:14;;;;;;;6.00;5.80;;;;;;;;;;5099800;27;20056;-62
2022/07/05 03:41:39;;;;;;;5.88;5.68;;;;;;;;;;5095159;28;20111;-62
2022/07/05 03:44:04;;;;;;;5.90;5.70;;;;;;;;;;5098382;28;20019;-64
2022/07/05 03:46:29;;;;;;;6.03;5.83;;;;;;;;;;5099782;28;20044;-63
2022/07/05 03:48:55;;;;;;;6.10;5.90;;;;;;;;;;5085629;28;20319;-63
2022/07/05 03:51:20;;;;;;;6.10;5.90;;;;;;;;;;5092148;28;20335;-63
2022/07/05 03:53:45;;;;;;;6.20;6.00;;;;;;;;;;5100417;28;20027;-64
2022/07/05 03:56:11;;;;;;;6.10;5.90;;;;;;;;;;5100008;27;20313;-63
2022/07/05 03:58:36;;;;;;;6.00;5.80;;;;;;;;;;5103193;28;20689;-64
2022/07/05 04:01:02;;;;;;;6.00;5.80;;;;;;;;;;5099255;28;20142;-63
2022/07/05 04:03:27;;;;;;;6.10;5.90;;;;;;;;;;5104402;28;20260;-65
2022/07/05 04:05:52;;;;;;;6.07;5.87;;;;;;;;;;5094054;28;20015;-64
2022/07/05 04:08:17;;;;;;;6.13;5.93;;;;;;;;;;5088957;28;20344;-64
2022/07/05 04:10:43;;;;;;;6.10;5.90;;;;;;;;;;5095711;28;20732;-62
2022/07/05 04:13:08;;;;;;;6.20;6.00;;;;;;;;;;5092380;28;20265;-63
2022/07/05 04:15:34;;;;;;;6.22;6.00;;;;;;;;;;5094785;28;20253;-63
2022/07/05 04:17:59;;;;;;;6.35;6.10;;;;;;;;;;5093771;28;20020;-63
2022/07/05 04:20:24;;;;;;;6.20;5.97;;;;;;;;;;5090309;28;20028;-63
2022/07/05 04:22:51;;;;;;;6.50;6.20;;;;;;;;;;5081355;28;20364;-63
2022/07/05 04:25:16;;;;;;;6.30;6.03;;;;;;;;;;5094447;28;20028;-64
2022/07/05 04:27:45;;;;;;;6.20;5.97;;;;;;;;;;5093201;28;20027;-63
2022/07/05 04:30:11;;;;;;;6.10;5.90;;;;;;;;;;5092794;28;20034;-62
2022/07/05 04:32:36;;;;;;;6.00;5.80;;;;;;;;;;5087869;28;20016;-63
2022/07/05 04:35:01;;;;;;;6.10;5.90;;;;;;;;;;5092980;28;20050;-63
2022/07/05 04:37:27;;;;;;;6.40;6.10;;;;;;;;;;5094866;28;20333;-62
2022/07/05 04:39:52;;;;;;;6.15;5.95;;;;;;;;;;5093066;28;20570;-64
2022/07/05 04:42:18;;;;;;;6.43;6.13;;;;;;;;;;5076628;28;20020;-62
2022/07/05 04:44:43;;;;;;;6.38;6.07;;;;;;;;;;5090553;28;20283;-61
2022/07/05 04:47:08;;;;;;;6.37;6.07;;;;;;;;;;5093755;28;20078;-62
2022/07/05 04:49:33;;;;;;;6.23;6.03;;;;;;;;;;5085694;28;20638;-61
2022/07/05 04:51:59;;;;;;;6.50;6.20;;;;;;;;;;5081271;28;20268;-61
2022/07/05 04:54:24;;;;;;;6.43;6.13;;;;;;;;;;5092670;28;20036;-62
2022/07/05 04:56:49;;;;;;;6.57;6.27;;;;;;;;;;5093728;28;20099;-62
2022/07/05 04:59:15;;;;;;;6.40;6.10;;;;;;;;;;5093300;28;20020;-62
2022/07/05 05:01:40;;;;;;;6.90;6.60;;;;;;;;;;5085200;28;20403;-61
2022/07/05 05:04:05;;;;;;;6.60;6.30;;;;;;;;;;5092967;28;20024;-62
2022/07/05 05:06:31;;;;;;;6.38;6.07;;;;;;;;;;5093644;28;20498;-63
2022/07/05 05:08:57;;;;;;;6.67;6.37;;;;;;;;;;5091721;28;20050;-62
2022/07/05 05:11:22;;;;;;;6.40;6.10;;;;;;;;;;5093073;28;20028;-62
2022/07/05 05:13:47;;;;;;;6.33;6.07;;;;;;;;;;5092496;28;20028;-62
2022/07/05 05:16:13;;;;;;;6.33;6.07;;;;;;;;;;5093155;28;20621;-61
2022/07/05 05:18:38;;;;;;;6.50;6.20;;;;;;;;;;5093672;28;20055;-62
2022/07/05 05:21:04;;;;;;;6.50;6.20;;;;;;;;;;5093431;28;20020;-63
2022/07/05 05:23:29;;;;;;;5.85;5.65;;;;;;;;;;5093579;28;20277;-61
2022/07/05 05:25:54;;;;;;;6.45;6.15;;;;;;;;;;5090133;28;20024;-63
2022/07/05 05:28:20;;;;;;;6.60;6.30;;;;;;;;;;5084225;28;20093;-62
2022/07/05 05:30:46;;;;;;;6.30;6.05;;;;;;;;;;5093483;28;20458;-63
2022/07/05 05:33:11;;;;;;;6.55;6.25;;;;;;;;;;5092348;28;20024;-63
2022/07/05 05:35:37;;;;;;;6.70;6.40;;;;;;;;;;5093491;28;20107;-62
2022/07/05 05:38:02;;;;;;;6.67;6.37;;;;;;;;;;5107430;28;20031;-62
2022/07/05 05:40:27;;;;;;;6.77;6.47;;;;;;;;;;5091945;28;20690;-62
2022/07/05 05:42:53;;;;;;;6.67;6.37;;;;;;;;;;5092023;28;20553;-62
2022/07/05 05:45:19;;;;;;;6.70;6.40;;;;;;;;;;5092161;28;20020;-62
2022/07/05 05:47:47;;;;;;;6.80;6.50;;;;;;;;;;5089515;28;20059;-61
2022/07/05 05:50:13;;;;;;;6.72;6.43;;;;;;;;;;5092809;28;20062;-63
2022/07/05 05:52:38;;;;;;;6.57;6.28;;;;;;;;;;5093381;28;20032;-62
2022/07/05 05:55:05;;;;;;;6.83;6.53;;;;;;;;;;5089706;28;20043;-61
2022/07/05 05:57:31;;;;;;;7.00;6.70;;;;;;;;;;5087169;28;20564;-63
2022/07/05 05:59:56;;;;;;;7.07;6.78;;;;;;;;;;5091573;28;20123;-61
2022/07/05 06:02:21;;;;;;;6.90;6.60;;;;;;;;;;5077907;28;20036;-63
2022/07/05 06:04:47;;;;;;;6.83;6.53;;;;;;;;;;5076465;28;20499;-61
2022/07/05 06:07:12;;;;;;;6.87;6.57;;;;;;;;;;5092312;28;20039;-62
2022/07/05 06:09:37;;;;;;;6.67;6.37;;;;;;;;;;5086477;28;20156;-60
2022/07/05 06:12:03;;;;;;;6.80;6.50;;;;;;;;;;5090743;28;20028;-61
2022/07/05 06:14:28;;;;;;;6.55;6.25;;;;;;;;;;5083194;28;20475;-61
2022/07/05 06:16:53;;;;;;;6.53;6.23;;;;;;;;;;5079723;28;20417;-62
2022/07/05 06:19:19;;;;;;;6.60;6.30;;;;;;;;;;5077296;28;20020;-62
2022/07/05 06:21:44;;;;;;;6.57;6.27;;;;;;;;;;5074110;28;20037;-62
2022/07/05 06:24:09;;;;;;;6.63;6.33;;;;;;;;;;5085434;28;20039;-63
2022/07/05 06:26:35;;;;;;;6.63;6.32;;;;;;;;;;5087181;28;20249;-63
2022/07/05 06:29:00;;;;;;;6.73;6.43;;;;;;;;;;5084096;28;20027;-61
2022/07/05 06:31:25;;;;;;;6.80;6.50;;;;;;;;;;5085742;28;20118;-60
2022/07/05 06:33:50;;;;;;;6.50;6.20;;;;;;;;;;5093329;28;20265;-60
2022/07/05 06:36:16;;;;;;;6.50;6.20;;;;;;;;;;5077609;28;20020;-61
2022/07/05 06:38:41;;;;;;;6.93;6.63;;;;;;;;;;5086414;28;20023;-62
2022/07/05 06:41:06;;;;;;;6.90;6.60;;;;;;;;;;5085616;28;20271;-62
2022/07/05 06:43:32;;;;;;;6.70;6.40;;;;;;;;;;5102995;28;20039;-61
2022/07/05 06:45:57;;;;;;;6.80;6.50;;;;;;;;;;5087396;28;20449;-62
2022/07/05 06:48:22;;;;;;;6.80;6.50;;;;;;;;;;5084561;28;20020;-62
2022/07/05 06:50:48;;;;;;;6.97;6.67;;;;;;;;;;5072878;28;20101;-62
2022/07/05 06:53:13;;;;;;;6.95;6.65;;;;;;;;;;5085441;28;20034;-62
2022/07/05 06:55:44;;;;;;;6.90;6.60;;;;;;;;;;5087335;28;20486;-63
2022/07/05 06:58:09;;;;;;;6.93;6.63;;;;;;;;;;5089542;28;20028;-61
2022/07/05 07:00:35;;;;;;;6.93;6.63;;;;;;;;;;5077343;28;20065;-62
2022/07/05 07:03:00;;;;;;;7.18;6.88;;;;;;;;;;5083056;28;20024;-62
2022/07/05 07:05:26;;;;;;;7.00;6.70;;;;;;;;;;5081679;28;20703;-63
2022/07/05 07:10:36;;;;;;;7.07;6.78;;;;;;;;;;5082835;28;20777;-61
2022/07/05 07:13:01;;;;;;;7.15;6.85;;;;;;;;;;5087887;28;20020;-61
2022/07/05 07:15:27;;;;;;;7.20;6.90;;;;;;;;;;5081291;28;20017;-61
2022/07/05 07:17:52;;;;;;;7.22;6.93;;;;;;;;;;5085340;28;20084;-62
2022/07/05 07:20:18;;;;;;;7.17;6.87;;;;;;;;;;5093457;28;20028;-63
2022/07/05 07:22:43;;;;;;;7.15;6.85;;;;;;;;;;5079909;28;20518;-61
2022/07/05 07:25:09;;;;;;;7.23;6.93;;;;;;;;;;5083657;28;20495;-62
2022/07/05 07:27:43;;;;;;;6.97;6.68;;;;;;;;;;5082238;28;20479;-62
2022/07/05 07:30:10;;;;;;;6.80;6.50;;;;;;;;;;5085231;28;20035;-62
2022/07/05 07:32:35;;;;;;;6.80;6.50;;;;;;;;;;5073626;28;20021;-62
2022/07/05 07:35:01;;;;;;;6.33;6.07;;;;;;;;;;5083575;28;20031;-62
2022/07/05 07:37:26;;;;;;;6.67;6.37;;;;;;;;;;5073855;28;20384;-63
2022/07/05 07:39:51;;;;;;;6.60;6.30;;;;;;;;;;5086795;28;20042;-62
2022/07/05 07:42:16;;;;;;;6.70;6.40;;;;;;;;;;5082802;28;20016;-62
2022/07/05 07:44:42;;;;;;;6.50;6.20;;;;;;;;;;5083353;28;20537;-62
2022/07/05 07:47:07;;;;;;;6.20;6.00;;;;;;;;;;5086977;28;20044;-62
2022/07/05 07:49:32;;;;;;;6.28;6.05;;;;;;;;;;5087320;28;20028;-62
2022/07/05 07:51:58;;;;;;;6.00;5.80;;;;;;;;;;5087342;28;20491;-61
2022/07/05 07:54:23;;;;;;;6.13;5.93;;;;;;;;;;5087154;28;20024;-62
2022/07/05 07:56:48;;;;;;;6.00;5.80;;;;;;;;;;5085000;28;20261;-63
2022/07/05 07:59:14;;;;;;;5.82;5.63;;;;;;;;;;5073416;28;20028;-65
2022/07/05 08:01:39;;;;;;;6.00;5.80;;;;;;;;;;5087237;28;20108;-63
2022/07/05 08:04:04;;;;;;;5.95;5.75;;;;;;;;;;5079264;28;20281;-63
2022/07/05 08:06:30;;;;;;;6.27;6.03;;;;;;;;;;5084255;28;20055;-62
2022/07/05 08:08:56;;;;;;;6.03;5.82;;;;;;;;;;5095946;28;20406;-62
2022/07/05 08:11:21;;;;;;;5.75;5.55;;;;;;;;;;5081885;28;20031;-63
2022/07/05 08:13:47;;;;;;;5.85;5.65;;;;;;;;;;5083472;28;20499;-63
2022/07/05 08:16:13;;;;;;;5.85;5.65;;;;;;;;;;5086125;28;20028;-63
2022/07/05 08:21:42;;;;;;;6.00;5.80;;;;;;;;;;5055428;28;20489;-63
2022/07/05 08:24:08;;;;;;;5.90;5.70;;;;;;;;;;5070137;28;20027;-63
2022/07/05 08:26:34;;;;;;;5.80;5.60;;;;;;;;;;5083500;28;20075;-62
2022/07/05 08:29:01;;;;;;;5.80;5.60;;;;;;;;;;5090338;28;20630;-64
2022/07/05 08:31:27;;;;;;;6.10;5.90;;;;;;;;;;5088397;28;20063;-63
2022/07/05 08:33:52;;;;;;;5.72;5.53;;;;;;;;;;5082057;28;20051;-62
2022/07/05 08:36:18;;;;;;;5.73;5.53;;;;;;;;;;5090352;28;20059;-64
2022/07/05 08:38:43;;;;;;;5.78;5.57;;;;;;;;;;5088796;28;20712;-64
2022/07/05 08:41:10;;;;;;;5.70;5.50;;;;;;;;;;5091145;28;20024;-60
2022/07/05 08:43:36;;;;;;;5.75;5.55;;;;;;;;;;5094638;28;20963;-61
2022/07/05 08:46:02;;;;;;;5.80;5.60;;;;;;;;;;5092869;28;20496;-62
2022/07/05 08:48:27;;;;;;;5.90;5.70;;;;;;;;;;5093631;28;20030;-61
2022/07/05 08:50:54;;;;;;;5.90;5.70;;;;;;;;;;5086653;28;20111;-62
2022/07/05 08:53:20;;;;;;;5.90;5.70;;;;;;;;;;5086570;28;20479;-63
2022/07/05 08:55:45;;;;;;;5.90;5.70;;;;;;;;;;5092897;28;20020;-62
2022/07/05 08:58:10;;;;;;;5.90;5.70;;;;;;;;;;5094575;28;20032;-62
2022/07/05 09:00:36;;;;;;;5.93;5.72;;;;;;;;;;5090070;28;20081;-63
2022/07/05 09:03:01;;;;;;;5.85;5.65;;;;;;;;;;5092673;28;20510;-62
2022/07/05 09:05:28;;;;;;;5.90;5.70;;;;;;;;;;5094794;28;20056;-61
2022/07/05 09:08:00;;;;;;;5.85;5.65;;;;;;;;;;5092659;28;20435;-64
2022/07/05 09:10:26;;;;;;;5.85;5.65;;;;;;;;;;5088408;28;20024;-61
2022/07/05 09:12:52;;;;;;;5.88;5.68;;;;;;;;;;5084152;28;20383;-61
2022/07/05 09:15:17;;;;;;;5.90;5.70;;;;;;;;;;5092676;28;20096;-61
2022/07/05 09:17:43;;;;;;;5.85;5.65;;;;;;;;;;5091766;28;20020;-61
2022/07/05 09:20:11;;;;;;;5.63;5.43;;;;;;;;;;5093536;28;20020;-60
2022/07/05 09:22:53;;;;;;;5.60;5.40;;;;;;;;;;5094228;28;20116;-61
2022/07/05 09:25:39;;;;;;;5.80;5.60;;;;;;;;;;5092515;28;20024;-62
2022/07/05 09:28:04;;;;;;;5.80;5.60;;;;;;;;;;5082598;28;20118;-61
2022/07/05 09:30:30;;;;;;;5.70;5.50;;;;;;;;;;5093324;28;20154;-62
2022/07/05 09:33:04;;;;;;;5.85;5.65;;;;;;;;;;5093538;28;20020;-61
2022/07/05 09:35:34;;;;;;;5.75;5.55;;;;;;;;;;5093015;28;20066;-61
2022/07/05 09:38:02;;;;;;;5.45;5.25;;;;;;;;;;5093440;28;20121;-62
2022/07/05 09:40:28;;;;;;;5.80;5.60;;;;;;;;;;5092978;28;20039;-61
2022/07/05 09:43:09;;;;;;;5.60;5.40;;;;;;;;;;5091824;28;20028;-62
2022/07/05 09:45:35;;;;;;;5.70;5.50;;;;;;;;;;5093383;28;20485;-62
2022/07/05 09:48:00;;;;;;;5.60;5.40;;;;;;;;;;5093068;28;20107;-61
2022/07/05 09:50:37;;;;;;;5.50;5.30;;;;;;;;;;5086527;28;20488;-61
2022/07/05 09:53:02;;;;;;;5.60;5.40;;;;;;;;;;5088155;28;20103;-62
2022/07/05 09:55:28;;;;;;;5.70;5.50;;;;;;;;;;5092397;28;20703;-62
2022/07/05 09:57:54;;;;;;;5.70;5.50;;;;;;;;;;5091849;28;20023;-61
2022/07/05 10:00:23;;;;;;;5.55;5.35;;;;;;;;;;5093258;28;20031;-61
2022/07/05 10:02:48;;;;;;;5.50;5.30;;;;;;;;;;5092633;28;20161;-62
2022/07/05 10:05:14;;;;;;;5.57;5.38;;;;;;;;;;5092668;28;20044;-62
2022/07/05 10:07:40;;;;;;;5.70;5.50;;;;;;;;;;5089975;28;20019;-62
2022/07/05 10:10:06;;;;;;;5.50;5.30;;;;;;;;;;5092548;28;20022;-62
2022/07/05 10:12:33;;;;;;;5.70;5.50;;;;;;;;;;5091194;28;20099;-61
2022/07/05 10:14:59;;;;;;;5.70;5.50;;;;;;;;;;5089058;28;20013;-62
2022/07/05 10:17:25;;;;;;;5.53;5.32;;;;;;;;;;5085220;28;20051;-63
2022/07/05 10:19:51;;;;;;;5.60;5.40;;;;;;;;;;5094886;28;20764;-61
2022/07/05 10:22:16;;;;;;;5.70;5.50;;;;;;;;;;5092292;28;20054;-62
2022/07/05 10:24:41;;;;;;;5.50;5.30;;;;;;;;;;5092596;28;20024;-62
2022/07/05 10:27:08;;;;;;;5.57;5.38;;;;;;;;;;5092016;28;20269;-62
2022/07/05 10:29:33;;;;;;;5.50;5.30;;;;;;;;;;5092148;28;20383;-61
2022/07/05 10:31:59;;;;;;;5.60;5.40;;;;;;;;;;5088297;28;20016;-62
2022/07/05 10:34:25;;;;;;;5.40;5.20;;;;;;;;;;5082941;28;20166;-62
2022/07/05 10:36:50;;;;;;;5.40;5.20;;;;;;;;;;5092028;28;20110;-61
2022/07/05 10:39:16;;;;;;;5.40;5.20;;;;;;;;;;5092158;28;20024;-62
2022/07/05 10:41:42;;;;;;;5.47;5.28;;;;;;;;;;5092013;28;20244;-61
2022/07/05 10:44:07;;;;;;;5.70;5.50;;;;;;;;;;5091944;28;20494;-62
2022/07/05 10:46:36;;;;;;;5.57;5.38;;;;;;;;;;5087212;28;20049;-62
2022/07/05 10:49:20;;;;;;;5.60;5.40;;;;;;;;;;5090969;28;20494;-62
2022/07/05 10:51:46;;;;;;;5.78;5.57;;;;;;;;;;5091945;28;20031;-62
2022/07/05 10:54:13;;;;;;;5.60;5.40;;;;;;;;;;5092066;28;20061;-62
2022/07/05 10:56:39;;;;;;;5.70;5.50;;;;;;;;;;5091780;28;20046;-61
2022/07/05 10:59:07;;;;;;;5.50;5.30;;;;;;;;;;5092137;28;20025;-62
2022/07/05 11:01:34;;;;;;;5.50;5.30;;;;;;;;;;5091954;28;20047;-62
2022/07/05 11:04:02;;;;;;;5.60;5.40;;;;;;;;;;5091959;28;20059;-62
2022/07/05 11:06:34;;;;;;;5.60;5.40;;;;;;;;;;5086125;28;20020;-62
2022/07/05 11:08:59;;;;;;;5.60;5.40;;;;;;;;;;5082143;28;20023;-61
2022/07/05 11:11:27;;;;;;;5.60;5.40;;;;;;;;;;5092067;28;20073;-62
2022/07/05 11:13:55;;;;;;;5.65;5.45;;;;;;;;;;5093761;28;20024;-62
2022/07/05 11:16:21;;;;;;;5.70;5.50;;;;;;;;;;5094682;28;20008;-60
2022/07/05 11:18:47;;;;;;;5.60;5.40;;;;;;;;;;5091633;28;20055;-62
2022/07/05 11:21:18;;;;;;;5.40;5.20;;;;;;;;;;5091451;28;20032;-61
2022/07/05 11:23:43;;;;;;;5.50;5.30;;;;;;;;;;5090523;28;20411;-62
2022/07/05 11:26:09;;;;;;;5.70;5.50;;;;;;;;;;5091676;28;20043;-61
2022/07/05 11:28:47;;;;;;;5.65;5.45;;;;;;;;;;5092022;28;20020;-61
2022/07/05 11:31:13;;;;;;;5.53;5.32;;;;;;;;;;5091624;28;20024;-61
2022/07/05 11:33:43;;;;;;;5.70;5.50;;;;;;;;;;5091543;28;20028;-62
2022/07/05 11:36:21;;;;;;;5.70;5.50;;;;;;;;;;5091220;28;20452;-62
2022/07/05 11:39:10;;;;;;;5.63;5.43;;;;;;;;;;5091781;28;20360;-62
2022/07/05 11:41:37;;;;;;;5.70;5.50;;;;;;;;;;5089762;28;20510;-61
2022/07/05 11:44:02;;;;;;;5.60;5.40;;;;;;;;;;5085940;28;20052;-62
2022/07/05 11:46:28;;;;;;;5.50;5.30;;;;;;;;;;5091206;28;20542;-62
2022/07/05 11:48:53;;;;;;;5.60;5.40;;;;;;;;;;5091649;28;20649;-61
2022/07/05 11:51:19;;;;;;;5.60;5.40;;;;;;;;;;5091613;28;20022;-61
2022/07/05 11:53:44;;;;;;;5.70;5.50;;;;;;;;;;5091261;28;20009;-61
2022/07/05 11:56:10;;;;;;;5.68;5.47;;;;;;;;;;5091318;28;20031;-62
2022/07/05 11:58:35;;;;;;;5.60;5.40;;;;;;;;;;5092840;28;20068;-62
2022/07/05 12:01:01;;;;;;;5.80;5.60;;;;;;;;;;5095295;28;20077;-60
2022/07/05 12:03:27;;;;;;;5.60;5.40;;;;;;;;;;5095266;28;20028;-62
2022/07/05 12:05:52;;;;;;;5.60;5.40;;;;;;;;;;5095242;28;20058;-62
2022/07/05 12:08:23;;;;;;;5.70;5.50;;;;;;;;;;5094541;28;20016;-62
2022/07/05 12:14:02;;;;;;;5.75;5.55;;;;;;;;;;5096653;28;20068;-62
2022/07/05 12:16:27;;;;;;;5.55;5.35;;;;;;;;;;5085420;28;20032;-63
2022/07/05 12:19:00;;;;;;;5.60;5.40;;;;;;;;;;5094982;28;20391;-62
2022/07/05 12:21:25;;;;;;;5.80;5.60;;;;;;;;;;5094726;28;20257;-61
2022/07/05 12:23:51;;;;;;;5.65;5.45;;;;;;;;;;5094736;28;20077;-61
2022/07/05 12:26:17;;;;;;;5.65;5.45;;;;;;;;;;5094723;28;20031;-62
2022/07/05 12:28:43;;;;;;;5.60;5.40;;;;;;;;;;5094794;28;20341;-62
2022/07/05 12:31:34;;;;;;;5.60;5.40;;;;;;;;;;5091814;28;20483;-62
2022/07/05 12:34:16;;;;;;;5.60;5.40;;;;;;;;;;5090759;28;20040;-62
2022/07/05 12:36:44;;;;;;;5.50;5.30;;;;;;;;;;5094597;28;20047;-62
2022/07/05 12:39:09;;;;;;;5.55;5.35;;;;;;;;;;5093503;28;20168;-62
2022/07/05 12:41:41;;;;;;;5.53;5.32;;;;;;;;;;5094539;28;20479;-61
2022/07/05 12:44:07;;;;;;;5.53;5.32;;;;;;;;;;5094118;28;20036;-63
2022/07/05 12:46:38;;;;;;;5.60;5.40;;;;;;;;;;5094175;28;20047;-62
2022/07/05 12:49:04;;;;;;;5.60;5.40;;;;;;;;;;5093445;28;20377;-62
2022/07/05 12:51:36;;;;;;;5.70;5.50;;;;;;;;;;5093071;28;20020;-63
2022/07/05 12:59:37;;;;;;;5.32;5.13;;;;;;;;;;5094260;28;20035;-62
2022/07/05 13:02:03;;;;;;;5.40;5.20;;;;;;;;;;5094467;28;20053;-61
2022/07/05 13:04:28;;;;;;;5.60;5.40;;;;;;;;;;5093859;28;20028;-62
2022/07/05 13:06:56;;;;;;;5.72;5.53;;;;;;;;;;5091444;28;20020;-61
2022/07/05 13:09:27;;;;;;;5.63;5.43;;;;;;;;;;5092378;28;20028;-62
2022/07/05 13:12:04;;;;;;;5.50;5.30;;;;;;;;;;5094132;28;20028;-62
2022/07/05 13:14:29;;;;;;;5.60;5.40;;;;;;;;;;5094190;28;20081;-63
2022/07/05 13:16:54;;;;;;;5.50;5.30;;;;;;;;;;5093824;28;20475;-61
2022/07/05 13:19:19;;;;;;;5.57;5.37;;;;;;;;;;5092224;28;20256;-63
2022/07/05 13:21:45;;;;;;;5.67;5.47;;;;;;;;;;5092927;28;20327;-62
2022/07/05 13:24:10;;;;;;;5.57;5.37;;;;;;;;;;5093895;28;21066;-62
2022/07/05 13:26:35;;;;;;;5.50;5.30;;;;;;;;;;5093711;28;20256;-61
2022/07/05 13:29:01;;;;;;;5.45;5.25;;;;;;;;;;5092984;28;20300;-62
2022/07/05 13:31:28;;;;;;;5.50;5.30;;;;;;;;;;5093347;28;20087;-62
2022/07/05 13:33:54;;;;;;;5.70;5.50;;;;;;;;;;5093405;28;20048;-62
2022/07/05 13:36:19;;;;;;;5.50;5.30;;;;;;;;;;5091992;28;20063;-63
2022/07/05 13:38:44;;;;;;;5.40;5.20;;;;;;;;;;5092088;28;20028;-63
2022/07/05 13:41:09;;;;;;;5.50;5.30;;;;;;;;;;5093339;28;20260;-62
2022/07/05 13:43:35;;;;;;;5.57;5.38;;;;;;;;;;5093033;28;20751;-62
2022/07/05 13:46:00;;;;;;;5.70;5.50;;;;;;;;;;5092927;28;20048;-62
2022/07/05 13:48:25;;;;;;;5.50;5.30;;;;;;;;;;5092747;28;20047;-62
2022/07/05 13:50:51;;;;;;;5.50;5.30;;;;;;;;;;5092618;28;20256;-62
2022/07/05 13:53:16;;;;;;;5.50;5.30;;;;;;;;;;5093112;28;20020;-62
2022/07/05 13:55:41;;;;;;;5.57;5.38;;;;;;;;;;5091705;28;20763;-62
2022/07/05 13:58:07;;;;;;;5.50;5.30;;;;;;;;;;5092932;28;20020;-63
2022/07/05 14:00:32;;;;;;;5.37;5.17;;;;;;;;;;5092799;28;20827;-61
2022/07/05 14:02:57;;;;;;;5.60;5.40;;;;;;;;;;5092839;28;20248;-61
2022/07/05 14:05:23;;;;;;;5.30;5.10;;;;;;;;;;5092891;28;20249;-61
2022/07/05 14:07:48;;;;;;;5.68;5.47;;;;;;;;;;5096151;28;20024;-62
2022/07/05 14:10:14;;;;;;;5.38;5.18;;;;;;;;;;5092640;28;20091;-63
2022/07/05 14:12:39;;;;;;;6.43;6.13;;;;;;;;;;5091382;28;20050;-62
2022/07/05 14:15:05;;;;;;;5.43;5.22;;;;;;;;;;5090338;28;20023;-61
2022/07/05 14:17:30;;;;;;;5.70;5.50;;;;;;;;;;5092425;28;20026;-62
2022/07/05 14:19:56;;;;;;;5.40;5.20;;;;;;;;;;5092071;28;20032;-62
2022/07/05 14:22:21;;;;;;;5.60;5.40;;;;;;;;;;5092427;28;20256;-62
2022/07/05 14:24:46;;;;;;;5.50;5.30;;;;;;;;;;5092196;28;20490;-61
2022/07/05 14:27:12;;;;;;;5.70;5.50;;;;;;;;;;5091839;28;20094;-63
2022/07/05 14:29:38;;;;;;;5.50;5.30;;;;;;;;;;5091096;28;20280;-62
2022/07/05 14:32:03;;;;;;;5.72;5.53;;;;;;;;;;5084401;28;20033;-61
2022/07/05 14:34:28;;;;;;;5.90;5.70;;;;;;;;;;5092168;28;20387;-62
2022/07/05 14:36:54;;;;;;;5.72;5.53;;;;;;;;;;5090825;28;20111;-61
2022/07/05 14:39:19;;;;;;;5.60;5.40;;;;;;;;;;5091920;28;20081;-62
2022/07/05 14:41:45;;;;;;;5.60;5.40;;;;;;;;;;5092204;28;20027;-63
2022/07/05 14:44:10;;;;;;;5.50;5.30;;;;;;;;;;5092230;28;20485;-61
2022/07/05 14:46:36;;;;;;;5.68;5.47;;;;;;;;;;5090815;28;20506;-62
2022/07/05 14:49:01;;;;;;;5.67;5.47;;;;;;;;;;5091715;28;20127;-62
2022/07/05 14:51:28;;;;;;;5.70;5.50;;;;;;;;;;5091414;28;20361;-61